sensor_id;sensor_type;location;lat;lon;timestamp;P1;durP1;ratioP1;P2;durP2;ratioP2
43676;SDS011;29275;48.800;18.102;2024-03-07T00:02:18;5.82;;;3.35;;
43676;SDS011;29275;48.800;18.102;2024-03-07T00:05:21;5.00;;;3.10;;
43676;SDS011;29275;48.800;18.102;2024-03-07T00:08:27;5.75;;;3.28;;
43676;SDS011;29275;48.800;18.102;2024-03-07T00:11:30;23.05;;;16.50;;
43676;SDS011;29275;48.800;18.102;2024-03-07T00:14:33;8.60;;;5.13;;
43676;SDS011;29275;48.800;18.102;2024-03-07T00:17:38;16.25;;;10.18;;
43676;SDS011;29275;48.800;18.102;2024-03-07T00:20:41;15.88;;;11.57;;
43676;SDS011;29275;48.800;18.102;2024-03-07T00:23:45;6.50;;;3.92;;
43676;SDS011;29275;48.800;18.102;2024-03-07T00:26:48;5.75;;;3.25;;
43676;SDS011;29275;48.800;18.102;2024-03-07T00:29:55;5.30;;;2.85;;
43676;SDS011;29275;48.800;18.102;2024-03-07T00:32:59;5.82;;;3.97;;
43676;SDS011;29275;48.800;18.102;2024-03-07T00:36:02;5.63;;;3.53;;
43676;SDS011;29275;48.800;18.102;2024-03-07T00:39:05;7.20;;;3.42;;
43676;SDS011;29275;48.800;18.102;2024-03-07T00:42:11;5.35;;;2.90;;
43676;SDS011;29275;48.800;18.102;2024-03-07T00:45:14;6.20;;;3.20;;
43676;SDS011;29275;48.800;18.102;2024-03-07T00:48:17;5.88;;;2.83;;
43676;SDS011;29275;48.800;18.102;2024-03-07T00:51:20;6.13;;;3.00;;
43676;SDS011;29275;48.800;18.102;2024-03-07T00:54:23;5.15;;;2.97;;
43676;SDS011;29275;48.800;18.102;2024-03-07T00:57:26;4.47;;;2.65;;
43676;SDS011;29275;48.800;18.102;2024-03-07T01:00:29;5.55;;;2.80;;
43676;SDS011;29275;48.800;18.102;2024-03-07T01:03:32;6.03;;;2.90;;
43676;SDS011;29275;48.800;18.102;2024-03-07T01:06:35;4.57;;;2.70;;
43676;SDS011;29275;48.800;18.102;2024-03-07T01:09:43;2.85;;;1.90;;
43676;SDS011;29275;48.800;18.102;2024-03-07T01:12:45;4.93;;;2.42;;
43676;SDS011;29275;48.800;18.102;2024-03-07T01:15:49;3.65;;;2.10;;
43676;SDS011;29275;48.800;18.102;2024-03-07T01:18:52;3.25;;;1.77;;
43676;SDS011;29275;48.800;18.102;2024-03-07T01:21:55;2.97;;;1.67;;
43676;SDS011;29275;48.800;18.102;2024-03-07T01:24:57;4.57;;;2.30;;
43676;SDS011;29275;48.800;18.102;2024-03-07T01:28:00;2.97;;;1.77;;
43676;SDS011;29275;48.800;18.102;2024-03-07T01:31:03;3.47;;;1.75;;
43676;SDS011;29275;48.800;18.102;2024-03-07T01:34:06;4.47;;;2.00;;
43676;SDS011;29275;48.800;18.102;2024-03-07T01:37:10;3.60;;;2.00;;
43676;SDS011;29275;48.800;18.102;2024-03-07T01:40:13;4.03;;;2.00;;
43676;SDS011;29275;48.800;18.102;2024-03-07T01:43:16;3.70;;;2.00;;
43676;SDS011;29275;48.800;18.102;2024-03-07T01:46:19;4.53;;;2.20;;
43676;SDS011;29275;48.800;18.102;2024-03-07T01:49:22;4.35;;;2.40;;
43676;SDS011;29275;48.800;18.102;2024-03-07T01:52:25;4.70;;;2.40;;
43676;SDS011;29275;48.800;18.102;2024-03-07T01:55:28;4.70;;;2.10;;
43676;SDS011;29275;48.800;18.102;2024-03-07T01:58:31;3.22;;;2.35;;
43676;SDS011;29275;48.800;18.102;2024-03-07T02:01:37;4.82;;;2.33;;
43676;SDS011;29275;48.800;18.102;2024-03-07T02:04:39;2.95;;;1.90;;
43676;SDS011;29275;48.800;18.102;2024-03-07T02:07:43;4.35;;;1.90;;
43676;SDS011;29275;48.800;18.102;2024-03-07T02:10:45;6.18;;;2.50;;
43676;SDS011;29275;48.800;18.102;2024-03-07T02:13:49;2.67;;;1.60;;
43676;SDS011;29275;48.800;18.102;2024-03-07T02:16:52;4.43;;;2.25;;
43676;SDS011;29275;48.800;18.102;2024-03-07T02:19:54;3.33;;;1.98;;
43676;SDS011;29275;48.800;18.102;2024-03-07T02:22:57;2.67;;;1.75;;
43676;SDS011;29275;48.800;18.102;2024-03-07T02:26:00;3.53;;;1.92;;
43676;SDS011;29275;48.800;18.102;2024-03-07T02:29:03;3.03;;;1.60;;
43676;SDS011;29275;48.800;18.102;2024-03-07T02:32:06;3.25;;;1.90;;
43676;SDS011;29275;48.800;18.102;2024-03-07T02:35:09;2.42;;;1.42;;
43676;SDS011;29275;48.800;18.102;2024-03-07T02:38:12;2.35;;;1.50;;
43676;SDS011;29275;48.800;18.102;2024-03-07T02:41:16;2.88;;;1.50;;
43676;SDS011;29275;48.800;18.102;2024-03-07T02:44:19;1.70;;;1.23;;
43676;SDS011;29275;48.800;18.102;2024-03-07T02:47:22;1.98;;;1.45;;
43676;SDS011;29275;48.800;18.102;2024-03-07T02:50:26;3.00;;;1.48;;
43676;SDS011;29275;48.800;18.102;2024-03-07T02:53:29;2.72;;;1.40;;
43676;SDS011;29275;48.800;18.102;2024-03-07T02:56:32;2.83;;;1.58;;
43676;SDS011;29275;48.800;18.102;2024-03-07T02:59:35;2.30;;;1.33;;
43676;SDS011;29275;48.800;18.102;2024-03-07T03:02:38;2.22;;;1.33;;
43676;SDS011;29275;48.800;18.102;2024-03-07T03:05:41;3.83;;;1.80;;
43676;SDS011;29275;48.800;18.102;2024-03-07T03:08:44;3.25;;;1.83;;
43676;SDS011;29275;48.800;18.102;2024-03-07T03:11:47;2.67;;;1.50;;
43676;SDS011;29275;48.800;18.102;2024-03-07T03:14:50;2.60;;;1.45;;
43676;SDS011;29275;48.800;18.102;2024-03-07T03:17:52;1.83;;;1.23;;
43676;SDS011;29275;48.800;18.102;2024-03-07T03:20:56;2.40;;;1.60;;
43676;SDS011;29275;48.800;18.102;2024-03-07T03:23:59;2.88;;;1.70;;
43676;SDS011;29275;48.800;18.102;2024-03-07T03:27:02;2.85;;;1.70;;
43676;SDS011;29275;48.800;18.102;2024-03-07T03:30:05;3.22;;;1.90;;
43676;SDS011;29275;48.800;18.102;2024-03-07T03:33:09;3.05;;;1.90;;
43676;SDS011;29275;48.800;18.102;2024-03-07T03:36:13;3.92;;;1.98;;
43676;SDS011;29275;48.800;18.102;2024-03-07T03:39:16;3.67;;;2.20;;
43676;SDS011;29275;48.800;18.102;2024-03-07T03:42:19;3.35;;;2.13;;
43676;SDS011;29275;48.800;18.102;2024-03-07T03:45:22;3.40;;;2.35;;
43676;SDS011;29275;48.800;18.102;2024-03-07T03:48:28;2.92;;;2.13;;
43676;SDS011;29275;48.800;18.102;2024-03-07T03:51:31;4.30;;;2.50;;
43676;SDS011;29275;48.800;18.102;2024-03-07T03:54:33;4.43;;;2.60;;
43676;SDS011;29275;48.800;18.102;2024-03-07T03:57:37;5.25;;;2.28;;
43676;SDS011;29275;48.800;18.102;2024-03-07T04:00:42;4.15;;;2.83;;
43676;SDS011;29275;48.800;18.102;2024-03-07T04:03:45;4.60;;;3.15;;
43676;SDS011;29275;48.800;18.102;2024-03-07T04:06:51;6.18;;;3.22;;
43676;SDS011;29275;48.800;18.102;2024-03-07T04:09:54;4.75;;;2.72;;
43676;SDS011;29275;48.800;18.102;2024-03-07T04:12:57;30.40;;;22.63;;
43676;SDS011;29275;48.800;18.102;2024-03-07T04:16:01;5.80;;;3.97;;
43676;SDS011;29275;48.800;18.102;2024-03-07T04:19:03;5.32;;;3.58;;
43676;SDS011;29275;48.800;18.102;2024-03-07T04:22:07;4.13;;;2.55;;
43676;SDS011;29275;48.800;18.102;2024-03-07T04:25:11;5.03;;;2.80;;
43676;SDS011;29275;48.800;18.102;2024-03-07T04:28:14;5.00;;;2.97;;
43676;SDS011;29275;48.800;18.102;2024-03-07T04:31:17;3.42;;;2.38;;
43676;SDS011;29275;48.800;18.102;2024-03-07T04:34:20;5.07;;;2.95;;
43676;SDS011;29275;48.800;18.102;2024-03-07T04:37:23;4.68;;;2.90;;
43676;SDS011;29275;48.800;18.102;2024-03-07T04:40:26;3.42;;;2.25;;
43676;SDS011;29275;48.800;18.102;2024-03-07T04:43:30;3.92;;;2.33;;
43676;SDS011;29275;48.800;18.102;2024-03-07T04:46:33;5.82;;;4.13;;
43676;SDS011;29275;48.800;18.102;2024-03-07T04:49:36;5.88;;;4.60;;
43676;SDS011;29275;48.800;18.102;2024-03-07T04:52:39;8.80;;;6.30;;
43676;SDS011;29275;48.800;18.102;2024-03-07T04:55:42;5.68;;;2.95;;
43676;SDS011;29275;48.800;18.102;2024-03-07T04:58:45;3.97;;;2.58;;
43676;SDS011;29275;48.800;18.102;2024-03-07T05:01:52;4.45;;;3.55;;
43676;SDS011;29275;48.800;18.102;2024-03-07T05:04:55;3.80;;;2.45;;
43676;SDS011;29275;48.800;18.102;2024-03-07T05:07:57;5.30;;;2.80;;
43676;SDS011;29275;48.800;18.102;2024-03-07T05:11:00;3.45;;;2.20;;
43676;SDS011;29275;48.800;18.102;2024-03-07T05:14:03;5.38;;;2.72;;
43676;SDS011;29275;48.800;18.102;2024-03-07T05:17:06;4.25;;;2.47;;
43676;SDS011;29275;48.800;18.102;2024-03-07T05:20:12;5.53;;;3.00;;
43676;SDS011;29275;48.800;18.102;2024-03-07T05:23:16;5.07;;;2.35;;
43676;SDS011;29275;48.800;18.102;2024-03-07T05:26:19;3.97;;;2.65;;
43676;SDS011;29275;48.800;18.102;2024-03-07T05:29:22;5.65;;;2.60;;
43676;SDS011;29275;48.800;18.102;2024-03-07T05:32:26;8.77;;;2.95;;
43676;SDS011;29275;48.800;18.102;2024-03-07T05:35:29;5.00;;;2.63;;
43676;SDS011;29275;48.800;18.102;2024-03-07T05:38:32;4.00;;;2.75;;
43676;SDS011;29275;48.800;18.102;2024-03-07T05:41:36;4.32;;;2.65;;
43676;SDS011;29275;48.800;18.102;2024-03-07T05:44:42;4.25;;;2.63;;
43676;SDS011;29275;48.800;18.102;2024-03-07T05:47:46;3.78;;;2.40;;
43676;SDS011;29275;48.800;18.102;2024-03-07T05:50:50;4.88;;;2.38;;
43676;SDS011;29275;48.800;18.102;2024-03-07T05:53:56;3.47;;;2.15;;
43676;SDS011;29275;48.800;18.102;2024-03-07T05:56:59;4.05;;;2.58;;
43676;SDS011;29275;48.800;18.102;2024-03-07T06:00:03;4.47;;;2.17;;
43676;SDS011;29275;48.800;18.102;2024-03-07T06:03:13;4.90;;;2.83;;
43676;SDS011;29275;48.800;18.102;2024-03-07T06:06:18;5.65;;;2.47;;
43676;SDS011;29275;48.800;18.102;2024-03-07T06:09:23;4.95;;;2.88;;
43676;SDS011;29275;48.800;18.102;2024-03-07T06:12:26;3.85;;;2.45;;
43676;SDS011;29275;48.800;18.102;2024-03-07T06:15:29;8.65;;;3.22;;
43676;SDS011;29275;48.800;18.102;2024-03-07T06:18:33;4.88;;;2.30;;
43676;SDS011;29275;48.800;18.102;2024-03-07T06:21:36;3.92;;;2.58;;
43676;SDS011;29275;48.800;18.102;2024-03-07T06:24:42;4.97;;;3.27;;
43676;SDS011;29275;48.800;18.102;2024-03-07T06:27:48;4.78;;;2.40;;
43676;SDS011;29275;48.800;18.102;2024-03-07T06:30:52;4.03;;;2.35;;
43676;SDS011;29275;48.800;18.102;2024-03-07T06:33:55;4.20;;;2.33;;
43676;SDS011;29275;48.800;18.102;2024-03-07T06:37:01;3.50;;;1.98;;
43676;SDS011;29275;48.800;18.102;2024-03-07T06:40:05;5.45;;;1.70;;
43676;SDS011;29275;48.800;18.102;2024-03-07T06:43:12;3.08;;;2.28;;
43676;SDS011;29275;48.800;18.102;2024-03-07T06:46:14;3.47;;;1.58;;
43676;SDS011;29275;48.800;18.102;2024-03-07T06:49:19;3.22;;;1.60;;
43676;SDS011;29275;48.800;18.102;2024-03-07T06:52:23;3.20;;;1.63;;
43676;SDS011;29275;48.800;18.102;2024-03-07T06:55:26;4.72;;;2.35;;
43676;SDS011;29275;48.800;18.102;2024-03-07T06:58:30;4.68;;;2.00;;
43676;SDS011;29275;48.800;18.102;2024-03-07T07:01:35;3.88;;;2.05;;
43676;SDS011;29275;48.800;18.102;2024-03-07T07:04:37;3.28;;;1.95;;
43676;SDS011;29275;48.800;18.102;2024-03-07T07:07:50;5.25;;;2.13;;
43676;SDS011;29275;48.800;18.102;2024-03-07T07:10:56;2.50;;;1.48;;
43676;SDS011;29275;48.800;18.102;2024-03-07T07:14:01;3.10;;;1.83;;
43676;SDS011;29275;48.800;18.102;2024-03-07T07:17:05;3.08;;;1.73;;
43676;SDS011;29275;48.800;18.102;2024-03-07T07:20:12;2.42;;;1.50;;
43676;SDS011;29275;48.800;18.102;2024-03-07T07:23:19;2.35;;;1.40;;
43676;SDS011;29275;48.800;18.102;2024-03-07T07:26:23;6.10;;;1.70;;
43676;SDS011;29275;48.800;18.102;2024-03-07T07:29:26;6.90;;;1.90;;
43676;SDS011;29275;48.800;18.102;2024-03-07T07:32:29;2.08;;;1.48;;
43676;SDS011;29275;48.800;18.102;2024-03-07T07:35:37;2.65;;;1.35;;
43676;SDS011;29275;48.800;18.102;2024-03-07T07:38:41;3.50;;;1.50;;
43676;SDS011;29275;48.800;18.102;2024-03-07T07:41:44;10.25;;;2.45;;
43676;SDS011;29275;48.800;18.102;2024-03-07T07:44:48;2.28;;;1.38;;
43676;SDS011;29275;48.800;18.102;2024-03-07T07:47:51;1.90;;;1.10;;
43676;SDS011;29275;48.800;18.102;2024-03-07T07:50:55;3.00;;;1.50;;
43676;SDS011;29275;48.800;18.102;2024-03-07T07:53:58;2.13;;;1.10;;
43676;SDS011;29275;48.800;18.102;2024-03-07T07:57:02;2.55;;;1.38;;
43676;SDS011;29275;48.800;18.102;2024-03-07T08:00:05;2.72;;;1.70;;
43676;SDS011;29275;48.800;18.102;2024-03-07T08:03:13;3.92;;;1.58;;
43676;SDS011;29275;48.800;18.102;2024-03-07T08:06:18;9.23;;;3.85;;
43676;SDS011;29275;48.800;18.102;2024-03-07T08:09:21;4.35;;;1.90;;
43676;SDS011;29275;48.800;18.102;2024-03-07T08:12:24;3.97;;;1.50;;
43676;SDS011;29275;48.800;18.102;2024-03-07T08:15:27;2.80;;;1.42;;
43676;SDS011;29275;48.800;18.102;2024-03-07T08:18:31;2.70;;;1.42;;
43676;SDS011;29275;48.800;18.102;2024-03-07T08:21:34;5.03;;;2.80;;
43676;SDS011;29275;48.800;18.102;2024-03-07T08:24:37;2.88;;;1.88;;
43676;SDS011;29275;48.800;18.102;2024-03-07T08:27:40;2.88;;;1.80;;
43676;SDS011;29275;48.800;18.102;2024-03-07T08:30:44;3.70;;;1.60;;
43676;SDS011;29275;48.800;18.102;2024-03-07T08:33:47;2.67;;;1.40;;
43676;SDS011;29275;48.800;18.102;2024-03-07T08:36:50;3.08;;;1.52;;
43676;SDS011;29275;48.800;18.102;2024-03-07T08:39:53;2.47;;;1.35;;
43676;SDS011;29275;48.800;18.102;2024-03-07T08:42:56;2.72;;;1.90;;
43676;SDS011;29275;48.800;18.102;2024-03-07T08:46:00;5.88;;;2.30;;
43676;SDS011;29275;48.800;18.102;2024-03-07T08:49:03;6.65;;;1.98;;
43676;SDS011;29275;48.800;18.102;2024-03-07T08:52:05;3.75;;;2.17;;
43676;SDS011;29275;48.800;18.102;2024-03-07T08:55:11;3.50;;;2.28;;
43676;SDS011;29275;48.800;18.102;2024-03-07T08:58:16;3.00;;;1.50;;
43676;SDS011;29275;48.800;18.102;2024-03-07T09:01:19;3.63;;;1.60;;
43676;SDS011;29275;48.800;18.102;2024-03-07T09:04:22;7.13;;;4.28;;
43676;SDS011;29275;48.800;18.102;2024-03-07T09:07:26;3.92;;;1.90;;
43676;SDS011;29275;48.800;18.102;2024-03-07T09:10:29;3.00;;;1.65;;
43676;SDS011;29275;48.800;18.102;2024-03-07T09:13:33;2.92;;;1.73;;
43676;SDS011;29275;48.800;18.102;2024-03-07T09:16:36;3.42;;;2.03;;
43676;SDS011;29275;48.800;18.102;2024-03-07T09:19:39;4.05;;;1.88;;
43676;SDS011;29275;48.800;18.102;2024-03-07T09:22:45;2.80;;;1.80;;
43676;SDS011;29275;48.800;18.102;2024-03-07T09:25:50;2.53;;;1.60;;
43676;SDS011;29275;48.800;18.102;2024-03-07T09:28:58;3.10;;;2.20;;
43676;SDS011;29275;48.800;18.102;2024-03-07T09:32:08;4.57;;;1.80;;
43676;SDS011;29275;48.800;18.102;2024-03-07T09:35:11;3.58;;;2.10;;
43676;SDS011;29275;48.800;18.102;2024-03-07T09:38:17;3.20;;;1.63;;
43676;SDS011;29275;48.800;18.102;2024-03-07T09:41:20;2.30;;;1.60;;
43676;SDS011;29275;48.800;18.102;2024-03-07T09:44:24;3.05;;;1.67;;
43676;SDS011;29275;48.800;18.102;2024-03-07T09:47:29;2.67;;;1.77;;
43676;SDS011;29275;48.800;18.102;2024-03-07T09:50:32;3.45;;;1.92;;
43676;SDS011;29275;48.800;18.102;2024-03-07T09:53:36;2.80;;;1.60;;
43676;SDS011;29275;48.800;18.102;2024-03-07T09:56:40;3.13;;;1.88;;
43676;SDS011;29275;48.800;18.102;2024-03-07T09:59:44;3.78;;;2.20;;
43676;SDS011;29275;48.800;18.102;2024-03-07T10:02:58;4.63;;;2.53;;
43676;SDS011;29275;48.800;18.102;2024-03-07T10:06:10;3.22;;;2.13;;
43676;SDS011;29275;48.800;18.102;2024-03-07T10:09:14;3.00;;;1.85;;
43676;SDS011;29275;48.800;18.102;2024-03-07T10:12:17;3.30;;;2.03;;
43676;SDS011;29275;48.800;18.102;2024-03-07T10:15:21;4.28;;;2.25;;
43676;SDS011;29275;48.800;18.102;2024-03-07T10:18:27;3.13;;;2.45;;
43676;SDS011;29275;48.800;18.102;2024-03-07T10:21:30;5.32;;;2.85;;
43676;SDS011;29275;48.800;18.102;2024-03-07T10:24:33;6.93;;;2.70;;
43676;SDS011;29275;48.800;18.102;2024-03-07T10:27:37;6.38;;;3.80;;
43676;SDS011;29275;48.800;18.102;2024-03-07T10:30:44;3.97;;;2.70;;
43676;SDS011;29275;48.800;18.102;2024-03-07T10:36:50;4.78;;;3.15;;
43676;SDS011;29275;48.800;18.102;2024-03-07T10:39:54;9.73;;;4.25;;
43676;SDS011;29275;48.800;18.102;2024-03-07T10:42:58;8.77;;;4.05;;
43676;SDS011;29275;48.800;18.102;2024-03-07T10:46:05;6.93;;;4.88;;
43676;SDS011;29275;48.800;18.102;2024-03-07T10:49:10;5.82;;;4.20;;
43676;SDS011;29275;48.800;18.102;2024-03-07T11:02:30;5.78;;;4.13;;
43676;SDS011;29275;48.800;18.102;2024-03-07T11:05:38;7.50;;;4.90;;
43676;SDS011;29275;48.800;18.102;2024-03-07T11:08:42;4.32;;;3.30;;
43676;SDS011;29275;48.800;18.102;2024-03-07T11:11:46;7.80;;;4.47;;
43676;SDS011;29275;48.800;18.102;2024-03-07T11:14:50;11.75;;;5.43;;
43676;SDS011;29275;48.800;18.102;2024-03-07T11:17:54;7.05;;;3.80;;
43676;SDS011;29275;48.800;18.102;2024-03-07T11:20:58;7.57;;;4.60;;
43676;SDS011;29275;48.800;18.102;2024-03-07T11:24:01;7.07;;;3.85;;
43676;SDS011;29275;48.800;18.102;2024-03-07T11:27:08;6.88;;;4.57;;
43676;SDS011;29275;48.800;18.102;2024-03-07T11:30:16;9.02;;;5.28;;
43676;SDS011;29275;48.800;18.102;2024-03-07T11:33:19;7.88;;;4.88;;
43676;SDS011;29275;48.800;18.102;2024-03-07T11:36:41;9.63;;;4.90;;
43676;SDS011;29275;48.800;18.102;2024-03-07T11:39:48;9.15;;;4.72;;
43676;SDS011;29275;48.800;18.102;2024-03-07T11:42:56;6.05;;;4.25;;
43676;SDS011;29275;48.800;18.102;2024-03-07T11:46:02;12.07;;;6.07;;
43676;SDS011;29275;48.800;18.102;2024-03-07T11:49:05;9.43;;;5.00;;
43676;SDS011;29275;48.800;18.102;2024-03-07T11:52:12;11.68;;;5.50;;
43676;SDS011;29275;48.800;18.102;2024-03-07T11:55:16;10.60;;;5.63;;
43676;SDS011;29275;48.800;18.102;2024-03-07T11:58:21;8.80;;;5.80;;
43676;SDS011;29275;48.800;18.102;2024-03-07T12:01:26;7.43;;;5.20;;
43676;SDS011;29275;48.800;18.102;2024-03-07T12:04:31;8.70;;;5.82;;
43676;SDS011;29275;48.800;18.102;2024-03-07T12:07:37;8.93;;;5.60;;
43676;SDS011;29275;48.800;18.102;2024-03-07T12:10:41;16.77;;;5.80;;
43676;SDS011;29275;48.800;18.102;2024-03-07T12:13:50;16.90;;;6.15;;
43676;SDS011;29275;48.800;18.102;2024-03-07T12:16:54;11.40;;;5.90;;
43676;SDS011;29275;48.800;18.102;2024-03-07T12:19:59;8.80;;;5.72;;
43676;SDS011;29275;48.800;18.102;2024-03-07T12:23:05;14.60;;;5.75;;
43676;SDS011;29275;48.800;18.102;2024-03-07T12:26:11;8.40;;;5.78;;
43676;SDS011;29275;48.800;18.102;2024-03-07T12:29:19;12.48;;;5.75;;
43676;SDS011;29275;48.800;18.102;2024-03-07T12:32:28;11.77;;;6.72;;
43676;SDS011;29275;48.800;18.102;2024-03-07T12:35:31;8.43;;;5.95;;
43676;SDS011;29275;48.800;18.102;2024-03-07T12:38:36;13.38;;;6.53;;
43676;SDS011;29275;48.800;18.102;2024-03-07T12:41:40;10.48;;;6.32;;
43676;SDS011;29275;48.800;18.102;2024-03-07T12:44:44;12.35;;;6.25;;
43676;SDS011;29275;48.800;18.102;2024-03-07T12:47:53;8.70;;;6.25;;
43676;SDS011;29275;48.800;18.102;2024-03-07T12:50:57;8.90;;;5.97;;
43676;SDS011;29275;48.800;18.102;2024-03-07T12:54:00;12.80;;;7.15;;
43676;SDS011;29275;48.800;18.102;2024-03-07T12:57:03;11.48;;;6.97;;
43676;SDS011;29275;48.800;18.102;2024-03-07T13:00:08;12.05;;;7.45;;
43676;SDS011;29275;48.800;18.102;2024-03-07T13:03:21;10.77;;;7.20;;
43676;SDS011;29275;48.800;18.102;2024-03-07T13:06:24;9.63;;;6.30;;
43676;SDS011;29275;48.800;18.102;2024-03-07T13:09:33;11.52;;;6.25;;
43676;SDS011;29275;48.800;18.102;2024-03-07T13:12:36;13.07;;;6.10;;
43676;SDS011;29275;48.800;18.102;2024-03-07T13:15:40;12.07;;;7.35;;
43676;SDS011;29275;48.800;18.102;2024-03-07T13:18:44;14.23;;;8.07;;
43676;SDS011;29275;48.800;18.102;2024-03-07T13:21:51;11.38;;;7.07;;
43676;SDS011;29275;48.800;18.102;2024-03-07T13:24:56;14.65;;;8.85;;
43676;SDS011;29275;48.800;18.102;2024-03-07T13:28:06;12.23;;;8.32;;
43676;SDS011;29275;48.800;18.102;2024-03-07T13:31:16;11.55;;;6.68;;
43676;SDS011;29275;48.800;18.102;2024-03-07T13:34:19;8.95;;;6.18;;
43676;SDS011;29275;48.800;18.102;2024-03-07T13:37:22;11.65;;;6.72;;
43676;SDS011;29275;48.800;18.102;2024-03-07T13:40:26;11.57;;;7.25;;
43676;SDS011;29275;48.800;18.102;2024-03-07T13:43:32;11.48;;;7.15;;
43676;SDS011;29275;48.800;18.102;2024-03-07T13:46:36;12.32;;;7.75;;
43676;SDS011;29275;48.800;18.102;2024-03-07T13:49:40;10.73;;;7.40;;
43676;SDS011;29275;48.800;18.102;2024-03-07T13:52:46;12.07;;;7.57;;
43676;SDS011;29275;48.800;18.102;2024-03-07T13:59:23;14.07;;;8.77;;
43676;SDS011;29275;48.800;18.102;2024-03-07T14:23:45;14.73;;;9.02;;
43676;SDS011;29275;48.800;18.102;2024-03-07T14:37:04;17.90;;;11.10;;
43676;SDS011;29275;48.800;18.102;2024-03-07T14:40:14;19.80;;;9.55;;
43676;SDS011;29275;48.800;18.102;2024-03-07T14:43:18;15.57;;;9.90;;
43676;SDS011;29275;48.800;18.102;2024-03-07T14:46:22;15.98;;;10.55;;
43676;SDS011;29275;48.800;18.102;2024-03-07T14:52:32;20.60;;;12.00;;
43676;SDS011;29275;48.800;18.102;2024-03-07T14:55:35;16.55;;;10.88;;
43676;SDS011;29275;48.800;18.102;2024-03-07T14:58:39;18.23;;;10.68;;
43676;SDS011;29275;48.800;18.102;2024-03-07T15:01:47;13.40;;;8.52;;
43676;SDS011;29275;48.800;18.102;2024-03-07T15:04:50;14.60;;;9.13;;
43676;SDS011;29275;48.800;18.102;2024-03-07T15:07:53;14.38;;;9.70;;
43676;SDS011;29275;48.800;18.102;2024-03-07T15:14:19;17.38;;;9.77;;
43676;SDS011;29275;48.800;18.102;2024-03-07T15:17:38;14.50;;;9.18;;
43676;SDS011;29275;48.800;18.102;2024-03-07T15:20:41;15.35;;;9.80;;
43676;SDS011;29275;48.800;18.102;2024-03-07T15:23:45;21.45;;;10.15;;
43676;SDS011;29275;48.800;18.102;2024-03-07T15:26:48;21.92;;;11.02;;
43676;SDS011;29275;48.800;18.102;2024-03-07T15:29:54;15.23;;;7.68;;
43676;SDS011;29275;48.800;18.102;2024-03-07T15:32:59;21.45;;;10.52;;
43676;SDS011;29275;48.800;18.102;2024-03-07T15:36:02;24.30;;;10.57;;
43676;SDS011;29275;48.800;18.102;2024-03-07T15:39:08;16.48;;;10.75;;
43676;SDS011;29275;48.800;18.102;2024-03-07T15:42:22;18.20;;;11.27;;
43676;SDS011;29275;48.800;18.102;2024-03-07T15:45:25;16.77;;;9.55;;
43676;SDS011;29275;48.800;18.102;2024-03-07T15:48:28;19.60;;;10.35;;
43676;SDS011;29275;48.800;18.102;2024-03-07T15:51:33;31.20;;;18.73;;
43676;SDS011;29275;48.800;18.102;2024-03-07T15:54:37;27.75;;;15.18;;
43676;SDS011;29275;48.800;18.102;2024-03-07T15:57:54;19.15;;;12.43;;
43676;SDS011;29275;48.800;18.102;2024-03-07T16:00:58;19.35;;;10.90;;
43676;SDS011;29275;48.800;18.102;2024-03-07T16:04:01;19.00;;;10.68;;
43676;SDS011;29275;48.800;18.102;2024-03-07T16:07:03;72.15;;;44.20;;
43676;SDS011;29275;48.800;18.102;2024-03-07T16:10:07;83.53;;;40.00;;
43676;SDS011;29275;48.800;18.102;2024-03-07T16:13:11;34.28;;;19.48;;
43676;SDS011;29275;48.800;18.102;2024-03-07T16:16:17;22.53;;;14.97;;
43676;SDS011;29275;48.800;18.102;2024-03-07T16:19:25;20.75;;;13.35;;
43676;SDS011;29275;48.800;18.102;2024-03-07T16:22:28;18.08;;;10.60;;
43676;SDS011;29275;48.800;18.102;2024-03-07T16:25:31;18.73;;;11.30;;
43676;SDS011;29275;48.800;18.102;2024-03-07T16:28:40;21.42;;;13.40;;
43676;SDS011;29275;48.800;18.102;2024-03-07T16:31:44;22.48;;;13.13;;
43676;SDS011;29275;48.800;18.102;2024-03-07T16:34:49;19.10;;;12.07;;
43676;SDS011;29275;48.800;18.102;2024-03-07T16:37:54;24.08;;;14.30;;
43676;SDS011;29275;48.800;18.102;2024-03-07T16:41:02;20.63;;;12.43;;
43676;SDS011;29275;48.800;18.102;2024-03-07T16:44:05;25.13;;;15.30;;
43676;SDS011;29275;48.800;18.102;2024-03-07T16:47:08;23.73;;;12.73;;
43676;SDS011;29275;48.800;18.102;2024-03-07T16:50:13;22.02;;;13.13;;
43676;SDS011;29275;48.800;18.102;2024-03-07T16:53:16;23.38;;;12.32;;
43676;SDS011;29275;48.800;18.102;2024-03-07T16:56:20;27.60;;;19.45;;
43676;SDS011;29275;48.800;18.102;2024-03-07T16:59:23;40.63;;;27.45;;
43676;SDS011;29275;48.800;18.102;2024-03-07T17:02:26;26.25;;;13.95;;
43676;SDS011;29275;48.800;18.102;2024-03-07T17:05:29;19.80;;;12.23;;
43676;SDS011;29275;48.800;18.102;2024-03-07T17:08:38;23.10;;;12.02;;
43676;SDS011;29275;48.800;18.102;2024-03-07T17:11:44;23.33;;;13.55;;
43676;SDS011;29275;48.800;18.102;2024-03-07T17:14:49;23.65;;;12.55;;
43676;SDS011;29275;48.800;18.102;2024-03-07T17:17:52;23.73;;;12.25;;
43676;SDS011;29275;48.800;18.102;2024-03-07T17:20:56;26.50;;;13.95;;
43676;SDS011;29275;48.800;18.102;2024-03-07T17:23:59;21.27;;;13.32;;
43676;SDS011;29275;48.800;18.102;2024-03-07T17:27:04;18.98;;;12.30;;
43676;SDS011;29275;48.800;18.102;2024-03-07T17:30:07;24.42;;;13.75;;
43676;SDS011;29275;48.800;18.102;2024-03-07T17:33:10;24.95;;;15.50;;
43676;SDS011;29275;48.800;18.102;2024-03-07T17:36:14;34.80;;;15.18;;
43676;SDS011;29275;48.800;18.102;2024-03-07T17:39:21;21.57;;;13.80;;
43676;SDS011;29275;48.800;18.102;2024-03-07T17:42:25;24.40;;;16.73;;
43676;SDS011;29275;48.800;18.102;2024-03-07T17:45:28;24.77;;;16.08;;
43676;SDS011;29275;48.800;18.102;2024-03-07T17:48:41;21.13;;;12.52;;
43676;SDS011;29275;48.800;18.102;2024-03-07T17:51:47;24.90;;;15.45;;
43676;SDS011;29275;48.800;18.102;2024-03-07T17:54:50;27.65;;;13.02;;
43676;SDS011;29275;48.800;18.102;2024-03-07T17:57:53;23.10;;;14.02;;
43676;SDS011;29275;48.800;18.102;2024-03-07T18:00:56;22.38;;;13.27;;
43676;SDS011;29275;48.800;18.102;2024-03-07T18:04:02;25.10;;;14.80;;
43676;SDS011;29275;48.800;18.102;2024-03-07T18:07:08;22.13;;;13.93;;
43676;SDS011;29275;48.800;18.102;2024-03-07T18:10:12;26.45;;;14.18;;
43676;SDS011;29275;48.800;18.102;2024-03-07T18:13:20;24.35;;;14.90;;
43676;SDS011;29275;48.800;18.102;2024-03-07T18:16:23;25.60;;;15.15;;
43676;SDS011;29275;48.800;18.102;2024-03-07T18:19:26;24.30;;;14.48;;
43676;SDS011;29275;48.800;18.102;2024-03-07T18:22:30;24.23;;;13.98;;
43676;SDS011;29275;48.800;18.102;2024-03-07T18:25:35;26.60;;;14.10;;
43676;SDS011;29275;48.800;18.102;2024-03-07T18:28:38;21.58;;;13.90;;
43676;SDS011;29275;48.800;18.102;2024-03-07T18:31:41;23.10;;;14.38;;
43676;SDS011;29275;48.800;18.102;2024-03-07T18:34:45;21.77;;;13.90;;
43676;SDS011;29275;48.800;18.102;2024-03-07T18:40:55;20.15;;;13.52;;
43676;SDS011;29275;48.800;18.102;2024-03-07T18:43:58;26.42;;;15.02;;
43676;SDS011;29275;48.800;18.102;2024-03-07T18:47:03;25.83;;;15.07;;
43676;SDS011;29275;48.800;18.102;2024-03-07T18:50:14;23.92;;;15.02;;
43676;SDS011;29275;48.800;18.102;2024-03-07T18:53:19;22.55;;;14.32;;
43676;SDS011;29275;48.800;18.102;2024-03-07T18:56:23;26.52;;;14.77;;
43676;SDS011;29275;48.800;18.102;2024-03-07T18:59:26;25.80;;;14.73;;
43676;SDS011;29275;48.800;18.102;2024-03-07T19:02:29;26.45;;;16.38;;